Time;durP1;ratioP1;P1;durP2;ratioP2;P2;SDS_P1;SDS_P2;PMS_P1;PMS_P2;Temp;Humidity;BMP_temperature;BMP_pressure;BME280_temperature;BME280_humidity;BME280_pressure;Samples;Min_cycle;Max_cycle;Signal;HPM_P1;HPM_P2
2022/05/09 00:01:51;;;;;;;9.70;8.80;;;15.00;99.90;;;;;;5055128;28;20196;-70
2022/05/09 00:04:16;;;;;;;9.00;8.30;;;14.90;99.90;;;;;;5055263;28;20172;-71
2022/05/09 00:06:42;;;;;;;10.80;9.70;;;14.80;99.90;;;;;;5053949;28;20416;-71
2022/05/09 00:09:08;;;;;;;9.10;8.30;;;14.80;99.90;;;;;;5053687;28;20174;-70
2022/05/09 00:11:34;;;;;;;9.70;8.90;;;14.80;99.90;;;;;;5053401;28;20677;-70
2022/05/09 00:14:00;;;;;;;10.87;9.90;;;14.90;99.90;;;;;;5093508;28;20176;-71
2022/05/09 00:16:28;;;;;;;9.73;8.93;;;14.80;99.90;;;;;;5075329;28;20204;-71
2022/05/09 00:18:53;;;;;;;11.10;10.00;;;14.60;99.90;;;;;;5093877;28;20410;-70
2022/05/09 00:21:19;;;;;;;9.90;9.03;;;14.60;99.90;;;;;;5091826;28;20415;-72
2022/05/09 00:23:45;;;;;;;10.53;9.67;;;14.50;99.90;;;;;;5062116;28;20165;-71
2022/05/09 00:26:11;;;;;;;9.97;9.17;;;14.50;99.90;;;;;;5073197;28;20495;-71
2022/05/09 00:28:36;;;;;;;10.53;9.63;;;14.50;99.90;;;;;;5073303;28;20685;-71
2022/05/09 00:31:02;;;;;;;10.50;9.60;;;14.50;99.90;;;;;;5073321;28;20188;-70
2022/05/09 00:33:28;;;;;;;12.03;10.93;;;14.50;99.90;;;;;;5072022;28;20180;-70
2022/05/09 00:35:54;;;;;;;10.93;9.73;;;14.30;99.90;;;;;;5072970;28;20231;-71
2022/05/09 00:38:20;;;;;;;11.83;10.83;;;14.30;99.90;;;;;;5073543;28;20616;-71
2022/05/09 00:43:32;;;;;;;12.20;11.10;;;14.40;99.90;;;;;;5089716;28;20205;-71
2022/05/09 00:45:58;;;;;;;11.20;10.07;;;14.50;99.90;;;;;;5094659;28;20394;-70
2022/05/09 00:48:23;;;;;;;11.37;10.37;;;14.50;99.90;;;;;;5098422;28;20485;-70
2022/05/09 00:50:49;;;;;;;11.97;10.87;;;14.50;99.90;;;;;;5092913;28;20204;-70
2022/05/09 00:53:15;;;;;;;11.63;10.63;;;14.50;99.90;;;;;;5093685;28;20196;-70
2022/05/09 00:55:57;;;;;;;12.80;11.10;;;14.40;99.90;;;;;;5075040;28;20203;-70
2022/05/09 00:58:54;;;;;;;12.37;11.23;;;14.40;99.90;;;;;;5093788;28;20202;-70
2022/05/09 01:01:21;;;;;;;13.87;12.77;;;14.30;99.90;;;;;;5092531;28;20955;-71
2022/05/09 01:03:53;;;;;;;12.57;11.27;;;14.20;99.90;;;;;;5093016;28;20401;-70
2022/05/09 01:06:18;;;;;;;12.17;10.97;;;14.20;99.90;;;;;;5093042;28;20410;-70
2022/05/09 01:08:44;;;;;;;12.00;10.97;;;14.30;99.90;;;;;;5093211;28;20402;-71
2022/05/09 01:11:16;;;;;;;12.50;11.40;;;14.10;99.90;;;;;;5096585;28;20590;-71
2022/05/09 01:13:46;;;;;;;12.63;11.53;;;14.10;99.90;;;;;;5097544;28;20179;-70
2022/05/09 01:16:16;;;;;;;10.17;9.23;;;14.10;99.90;;;;;;5097272;28;20429;-70
2022/05/09 01:18:44;;;;;;;12.13;10.97;;;14.10;99.90;;;;;;5097408;28;20511;-71
2022/05/09 01:21:28;;;;;;;12.83;11.57;;;14.20;99.90;;;;;;5097059;28;20433;-70
2022/05/09 01:23:53;;;;;;;12.50;11.40;;;14.30;99.90;;;;;;5097922;28;20461;-70
2022/05/09 01:26:19;;;;;;;13.27;11.97;;;14.30;99.90;;;;;;5097330;28;20924;-71
2022/05/09 01:28:45;;;;;;;13.27;12.17;;;14.20;99.90;;;;;;5097503;28;20538;-72
2022/05/09 01:31:15;;;;;;;11.73;10.63;;;14.10;99.90;;;;;;5097430;28;20198;-71
2022/05/09 01:33:46;;;;;;;12.47;11.37;;;14.10;99.90;;;;;;5097596;28;20466;-71
2022/05/09 01:36:15;;;;;;;12.37;11.33;;;14.00;99.90;;;;;;5096578;28;20452;-71
2022/05/09 01:38:50;;;;;;;12.20;11.10;;;13.90;99.90;;;;;;5096766;28;20503;-71
2022/05/09 01:41:15;;;;;;;12.90;11.90;;;13.90;99.90;;;;;;5082927;28;20450;-71
2022/05/09 01:43:45;;;;;;;13.90;12.70;;;13.80;99.90;;;;;;5082884;28;20410;-72
2022/05/09 01:46:23;;;;;;;13.50;12.20;;;13.70;99.90;;;;;;5075525;28;20177;-71
2022/05/09 01:49:32;;;;;;;12.53;11.43;;;13.70;99.90;;;;;;5075996;28;20437;-71
2022/05/09 01:51:42;;;;;;;15.60;14.20;;;13.70;99.90;;;;;;5062297;28;20543;-71
2022/05/09 01:54:09;;;;;;;13.83;12.53;;;13.70;99.90;;;;;;5052825;28;20465;-71
2022/05/09 01:56:38;;;;;;;12.60;11.40;;;13.70;99.90;;;;;;5056144;28;20449;-71
2022/05/09 01:59:06;;;;;;;12.43;11.43;;;13.70;99.90;;;;;;5038268;28;20446;-71
2022/05/09 02:01:41;;;;;;;12.43;11.43;;;13.70;99.90;;;;;;5037999;28;20969;-71
2022/05/09 02:04:06;;;;;;;12.03;11.03;;;13.80;99.90;;;;;;5038139;28;20412;-70
2022/05/09 02:06:32;;;;;;;13.27;12.10;;;13.80;99.90;;;;;;5055606;28;20422;-70
2022/05/09 02:08:58;;;;;;;12.80;11.60;;;13.80;99.90;;;;;;5056119;28;20175;-70
2022/05/09 02:11:24;;;;;;;14.63;13.20;;;13.80;99.90;;;;;;5056253;28;20196;-70
2022/05/09 02:13:50;;;;;;;13.30;12.20;;;13.70;99.90;;;;;;5094279;28;20188;-72
2022/05/09 02:16:15;;;;;;;12.10;11.00;;;13.70;99.90;;;;;;5096075;28;20456;-71
2022/05/09 02:18:41;;;;;;;13.53;12.43;;;13.70;99.90;;;;;;5095886;28;20177;-71
2022/05/09 02:21:07;;;;;;;14.60;13.10;;;13.70;99.90;;;;;;5094958;28;20590;-70
2022/05/09 02:23:33;;;;;;;12.13;11.10;;;13.70;99.90;;;;;;5095644;28;20194;-70
2022/05/09 02:25:59;;;;;;;11.47;10.47;;;13.70;99.90;;;;;;5095729;28;20179;-70
2022/05/09 02:28:25;;;;;;;13.80;12.57;;;13.70;99.90;;;;;;5077601;28;20414;-71
2022/05/09 02:30:51;;;;;;;12.77;11.67;;;13.70;99.90;;;;;;5095711;28;20946;-71
2022/05/09 02:33:17;;;;;;;11.40;10.40;;;13.70;99.90;;;;;;5095455;28;20252;-71
2022/05/09 02:35:43;;;;;;;12.97;11.57;;;13.70;99.90;;;;;;5095426;28;20196;-71
2022/05/09 02:38:09;;;;;;;13.87;12.77;;;13.70;99.90;;;;;;5095528;28;20405;-71
2022/05/09 02:40:35;;;;;;;12.63;11.53;;;13.70;99.90;;;;;;5095501;28;20518;-71
2022/05/09 02:43:01;;;;;;;12.20;11.20;;;13.70;99.90;;;;;;5095449;28;20504;-71
2022/05/09 02:45:27;;;;;;;12.17;11.03;;;13.60;99.90;;;;;;5095696;28;20909;-71
2022/05/09 02:47:54;;;;;;;12.63;11.53;;;13.70;99.90;;;;;;5095300;28;20415;-71
2022/05/09 02:50:21;;;;;;;12.13;11.00;;;13.70;99.90;;;;;;5120774;22;20549;-72
2022/05/09 02:52:51;;;;;;;12.30;11.40;;;13.60;99.90;;;;;;5046080;28;20911;-70
2022/05/09 02:55:18;;;;;;;13.00;11.80;;;13.50;99.90;;;;;;5032874;28;20455;-70
2022/05/09 02:57:44;;;;;;;13.03;11.93;;;13.40;99.90;;;;;;5034590;28;20402;-70
2022/05/09 03:00:16;;;;;;;14.63;12.40;;;13.40;99.90;;;;;;5033089;28;20422;-70
2022/05/09 03:04:38;;;;;;;13.80;12.50;;;13.50;99.90;;;;;;5014675;28;20385;-71
2022/05/09 03:05:27;;;;;;;13.97;12.70;;;13.40;99.90;;;;;;5024448;28;20441;-72
2022/05/09 03:07:53;;;;;;;12.77;11.77;;;13.40;99.90;;;;;;5034293;28;20502;-71
2022/05/09 03:10:18;;;;;;;13.53;12.33;;;13.30;99.90;;;;;;5034345;28;20169;-71
2022/05/09 03:12:44;;;;;;;13.97;12.77;;;13.20;99.90;;;;;;5034661;28;20178;-71
2022/05/09 03:15:10;;;;;;;13.33;12.13;;;13.20;99.90;;;;;;5034333;28;20636;-71
2022/05/09 03:17:35;;;;;;;11.90;10.90;;;13.20;99.90;;;;;;5034068;28;20261;-71
2022/05/09 03:20:03;;;;;;;12.40;11.40;;;13.20;99.90;;;;;;5034223;28;20534;-71
2022/05/09 03:22:28;;;;;;;13.93;12.77;;;13.20;99.90;;;;;;5033683;28;20157;-71
2022/05/09 03:24:54;;;;;;;12.90;11.70;;;13.20;99.90;;;;;;5016024;28;20405;-71
2022/05/09 03:27:20;;;;;;;11.50;10.50;;;13.20;99.90;;;;;;5033882;28;20240;-71
2022/05/09 03:29:45;;;;;;;14.07;12.77;;;13.20;99.90;;;;;;5016045;28;20224;-71
2022/05/09 03:32:11;;;;;;;13.43;12.33;;;13.20;99.90;;;;;;5033159;28;20197;-71
2022/05/09 03:34:36;;;;;;;13.83;12.53;;;13.20;99.90;;;;;;5033497;28;20199;-70
2022/05/09 03:37:02;;;;;;;12.27;11.20;;;13.20;99.90;;;;;;5033279;28;20280;-71
2022/05/09 03:39:28;;;;;;;12.20;11.20;;;13.10;99.90;;;;;;5033465;28;20167;-70
2022/05/09 03:41:53;;;;;;;14.20;12.90;;;13.10;99.90;;;;;;5033644;28;20190;-71
2022/05/09 03:44:19;;;;;;;11.93;10.83;;;13.00;99.90;;;;;;5033736;28;20168;-70
2022/05/09 03:46:45;;;;;;;13.83;12.60;;;13.00;99.90;;;;;;5033746;28;20178;-70
2022/05/09 03:49:12;;;;;;;12.20;11.20;;;13.10;99.90;;;;;;5033666;28;20200;-71
2022/05/09 03:51:37;;;;;;;14.53;13.23;;;13.10;99.90;;;;;;5032964;28;20449;-71
2022/05/09 03:54:03;;;;;;;14.00;12.80;;;13.00;99.90;;;;;;5033805;28;20498;-71
2022/05/09 03:56:29;;;;;;;12.47;11.47;;;13.00;99.90;;;;;;5012214;28;20191;-71
2022/05/09 03:58:54;;;;;;;15.43;14.03;;;12.90;99.90;;;;;;5033174;28;20194;-71
2022/05/09 04:01:20;;;;;;;11.93;10.93;;;13.00;99.90;;;;;;5033040;28;20188;-70
2022/05/09 04:03:46;;;;;;;14.83;13.50;;;13.00;99.90;;;;;;5033381;28;20242;-70
2022/05/09 04:06:13;;;;;;;14.47;13.30;;;13.00;99.90;;;;;;5032738;28;20177;-71
2022/05/09 04:08:38;;;;;;;14.37;12.87;;;13.00;99.90;;;;;;5033374;28;20451;-71
2022/05/09 04:11:04;;;;;;;13.37;12.13;;;13.00;99.90;;;;;;5033162;28;20519;-71
2022/05/09 04:13:30;;;;;;;14.03;12.80;;;13.00;99.90;;;;;;5033193;28;20168;-71
2022/05/09 04:18:42;;;;;;;16.20;14.70;;;13.10;99.90;;;;;;5033215;28;20166;-71
2022/05/09 04:21:09;;;;;;;14.90;13.60;;;13.00;99.90;;;;;;5032794;28;20461;-71
2022/05/09 04:23:35;;;;;;;15.20;13.60;;;13.00;99.90;;;;;;5032607;28;20397;-71
2022/05/09 04:26:01;;;;;;;15.20;13.87;;;13.10;99.90;;;;;;5029236;28;20440;-71
2022/05/09 04:28:27;;;;;;;16.67;15.27;;;13.20;99.90;;;;;;5033046;28;20262;-71
2022/05/09 04:30:53;;;;;;;16.90;15.30;;;13.20;99.90;;;;;;5028854;28;20902;-71
2022/05/09 04:33:20;;;;;;;16.23;14.67;;;13.20;99.90;;;;;;5032674;28;20403;-71
2022/05/09 04:35:46;;;;;;;14.40;13.20;;;13.30;99.90;;;;;;5033053;28;20253;-71
2022/05/09 04:38:22;;;;;;;15.73;14.23;;;13.30;99.90;;;;;;5032361;28;20433;-71
2022/05/09 04:40:51;;;;;;;14.70;13.40;;;13.30;99.90;;;;;;5032846;28;20194;-70
2022/05/09 04:43:23;;;;;;;14.73;13.43;;;13.40;99.90;;;;;;5032582;28;20459;-70
2022/05/09 04:45:49;;;;;;;15.00;13.70;;;13.40;99.90;;;;;;5032995;28;20389;-70
2022/05/09 04:48:19;;;;;;;16.20;14.70;;;13.50;99.90;;;;;;5029691;28;20604;-71
2022/05/09 04:50:45;;;;;;;14.17;12.97;;;13.50;99.90;;;;;;5005817;28;20493;-71
2022/05/09 04:53:11;;;;;;;14.70;13.23;;;13.50;99.90;;;;;;5023217;28;21097;-71
2022/05/09 04:55:37;;;;;;;15.20;13.83;;;13.60;99.90;;;;;;5023567;28;20559;-71
2022/05/09 04:58:03;;;;;;;14.53;13.33;;;13.60;99.90;;;;;;5022007;28;20246;-71
2022/05/09 05:00:29;;;;;;;13.83;12.53;;;13.60;99.90;;;;;;5029272;28;20427;-70
2022/05/09 05:02:56;;;;;;;15.20;13.90;;;13.60;99.90;;;;;;5032568;28;20421;-70
2022/05/09 05:05:23;;;;;;;15.17;13.87;;;13.70;99.90;;;;;;5032928;28;20420;-70
2022/05/09 05:07:48;;;;;;;15.93;14.37;;;13.80;99.90;;;;;;5032257;28;20969;-71
2022/05/09 05:10:16;;;;;;;14.03;12.60;;;13.90;99.90;;;;;;5032577;28;20412;-70
2022/05/09 05:12:41;;;;;;;15.17;13.57;;;13.90;99.90;;;;;;5015706;28;20649;-71
2022/05/09 05:15:08;;;;;;;16.30;14.60;;;13.90;99.90;;;;;;5032630;28;20406;-70
2022/05/09 05:17:35;;;;;;;15.37;14.07;;;14.00;99.90;;;;;;5032755;28;20170;-71
2022/05/09 05:20:02;;;;;;;13.40;12.30;;;14.00;99.90;;;;;;5032822;28;20958;-70
2022/05/09 05:22:28;;;;;;;15.90;14.50;;;14.10;99.90;;;;;;5032795;28;20417;-71
2022/05/09 05:24:54;;;;;;;15.00;13.60;;;14.20;99.90;;;;;;5032345;28;20459;-71
2022/05/09 05:27:21;;;;;;;12.10;11.10;;;14.30;99.90;;;;;;5032469;28;20425;-71
2022/05/09 05:29:49;;;;;;;17.50;12.90;;;14.40;99.90;;;;;;5032592;28;20409;-71
2022/05/09 05:32:20;;;;;;;13.67;12.37;;;14.50;99.90;;;;;;5032115;28;20427;-70
2022/05/09 05:34:47;;;;;;;14.17;12.87;;;14.70;99.90;;;;;;5014326;28;20429;-70
2022/05/09 05:37:13;;;;;;;13.90;12.73;;;14.80;99.90;;;;;;5031843;28;20463;-70
2022/05/09 05:39:40;;;;;;;15.23;13.97;;;14.90;99.90;;;;;;5032253;28;20494;-71
2022/05/09 05:42:07;;;;;;;14.87;13.60;;;15.00;99.90;;;;;;5031907;28;20262;-70
2022/05/09 05:44:34;;;;;;;16.07;14.67;;;15.10;99.90;;;;;;5026174;28;20853;-70
2022/05/09 05:47:04;;;;;;;14.37;13.00;;;15.10;99.90;;;;;;5026361;28;20417;-69
2022/05/09 05:49:29;;;;;;;14.50;13.20;;;15.20;99.90;;;;;;5029881;28;20406;-70
2022/05/09 05:52:04;;;;;;;13.40;12.20;;;15.30;99.90;;;;;;5013197;28;21008;-69
2022/05/09 05:54:39;;;;;;;14.17;12.90;;;15.40;99.90;;;;;;5032128;28;20169;-70
2022/05/09 05:57:14;;;;;;;13.27;12.00;;;15.40;99.90;;;;;;5033643;28;20504;-70
2022/05/09 05:59:40;;;;;;;14.80;13.60;;;15.60;99.90;;;;;;5035981;28;20392;-70
2022/05/09 06:02:06;;;;;;;14.07;12.97;;;15.60;99.90;;;;;;5035390;28;20428;-69
2022/05/09 06:04:31;;;;;;;14.93;13.63;;;15.70;99.90;;;;;;5035450;28;20256;-71
2022/05/09 06:06:57;;;;;;;14.30;13.10;;;15.70;99.90;;;;;;5035313;28;20182;-70
2022/05/09 06:09:22;;;;;;;15.23;13.83;;;15.90;99.90;;;;;;5035446;28;20178;-70
2022/05/09 06:11:48;;;;;;;14.50;13.20;;;16.00;99.90;;;;;;5035155;28;20690;-70
2022/05/09 06:14:14;;;;;;;17.30;14.40;;;16.10;99.90;;;;;;5035302;28;20179;-69
2022/05/09 06:16:40;;;;;;;15.73;14.43;;;16.20;99.90;;;;;;5035204;28;20309;-70
2022/05/09 06:19:08;;;;;;;17.43;15.97;;;16.20;99.90;;;;;;5035526;28;20619;-69
2022/05/09 06:21:34;;;;;;;16.37;14.87;;;16.20;99.90;;;;;;5034727;28;20437;-70
2022/05/09 06:24:04;;;;;;;16.50;15.07;;;16.00;99.90;;;;;;5035129;28;20500;-70
2022/05/09 06:26:30;;;;;;;16.43;15.00;;;15.90;99.90;;;;;;5035563;28;20408;-70
2022/05/09 06:28:56;;;;;;;15.67;14.27;;;15.60;99.90;;;;;;5035260;28;20820;-70
2022/05/09 06:31:22;;;;;;;16.47;15.00;;;15.40;99.90;;;;;;5035027;28;20432;-70
2022/05/09 06:33:47;;;;;;;16.97;15.43;;;15.40;99.90;;;;;;5017325;28;20232;-69
2022/05/09 06:36:13;;;;;;;14.67;13.37;;;15.30;99.90;;;;;;5034860;28;20205;-70
2022/05/09 06:38:39;;;;;;;15.80;14.40;;;15.50;99.90;;;;;;5034756;28;20205;-69
2022/05/09 06:41:07;;;;;;;17.00;14.10;;;15.60;99.90;;;;;;5034671;28;20270;-70
2022/05/09 06:43:33;;;;;;;14.30;13.10;;;15.80;99.90;;;;;;5035073;28;20617;-70
2022/05/09 06:46:00;;;;;;;16.20;14.60;;;16.20;99.90;;;;;;5034529;28;20424;-70
2022/05/09 06:48:25;;;;;;;16.37;14.77;;;16.30;99.90;;;;;;5034623;28;20504;-70
2022/05/09 06:50:51;;;;;;;16.20;14.60;;;16.20;99.90;;;;;;5034428;28;20461;-70
2022/05/09 06:53:17;;;;;;;16.83;15.33;;;16.40;99.90;;;;;;5034636;28;20271;-70
2022/05/09 06:55:43;;;;;;;13.87;12.77;;;16.40;99.90;;;;;;5033861;28;20203;-70
2022/05/09 06:58:18;;;;;;;15.23;13.93;;;16.30;99.90;;;;;;5034442;28;20171;-69
2022/05/09 07:00:44;;;;;;;14.90;13.67;;;16.40;99.90;;;;;;5016783;28;20905;-70
2022/05/09 07:03:12;;;;;;;13.57;12.37;;;16.40;99.90;;;;;;5034544;28;20442;-70
2022/05/09 07:05:39;;;;;;;14.80;13.27;;;16.30;99.90;;;;;;5034658;28;20793;-70
2022/05/09 07:08:06;;;;;;;13.63;12.43;;;16.40;99.90;;;;;;5015424;28;20422;-69
2022/05/09 07:10:32;;;;;;;13.57;12.37;;;16.40;99.90;;;;;;5034591;28;20434;-70
2022/05/09 07:12:59;;;;;;;12.33;11.43;;;16.40;99.90;;;;;;5034397;28;20500;-69
2022/05/09 07:15:29;;;;;;;15.13;12.23;;;16.20;99.90;;;;;;5034537;28;20601;-69
2022/05/09 07:17:56;;;;;;;13.33;11.93;;;16.00;99.90;;;;;;5034413;28;20405;-70
2022/05/09 07:20:25;;;;;;;14.57;12.27;;;16.10;99.90;;;;;;5033931;28;20429;-70
2022/05/09 07:22:55;;;;;;;14.13;12.87;;;16.30;99.90;;;;;;5034070;28;20504;-70
2022/05/09 07:25:22;;;;;;;13.23;12.10;;;16.50;99.90;;;;;;5034754;28;20413;-70
2022/05/09 07:27:47;;;;;;;12.40;11.40;;;16.90;99.90;;;;;;5033835;28;20464;-70
2022/05/09 07:30:16;;;;;;;14.27;11.10;;;17.00;99.90;;;;;;5033749;28;20444;-70
2022/05/09 07:32:42;;;;;;;12.53;11.40;;;17.20;99.90;;;;;;5016375;28;20229;-70
2022/05/09 07:35:11;;;;;;;12.50;11.40;;;17.50;99.90;;;;;;5033602;28;20788;-70
2022/05/09 07:37:38;;;;;;;13.03;11.70;;;17.50;99.90;;;;;;5033180;28;20478;-70
2022/05/09 07:40:05;;;;;;;12.57;11.37;;;17.80;99.90;;;;;;5033576;28;20513;-70
2022/05/09 07:42:31;;;;;;;14.53;10.80;;;17.70;99.90;;;;;;5033582;28;20497;-71
2022/05/09 07:44:57;;;;;;;11.80;10.70;;;17.50;99.90;;;;;;5033441;28;20802;-71
2022/05/09 07:47:25;;;;;;;11.00;10.17;;;17.50;99.90;;;;;;5033528;28;20163;-71
2022/05/09 07:49:51;;;;;;;12.87;11.70;;;17.40;99.90;;;;;;5033342;28;20902;-71
2022/05/09 07:52:16;;;;;;;11.50;10.60;;;17.50;99.90;;;;;;5015137;28;20534;-71
2022/05/09 07:54:43;;;;;;;10.27;9.37;;;17.70;99.90;;;;;;5033838;28;20624;-71
2022/05/09 07:57:09;;;;;;;10.23;9.50;;;17.90;99.90;;;;;;5030211;28;20225;-71
2022/05/09 07:59:35;;;;;;;10.50;9.60;;;18.00;99.90;;;;;;5033292;28;20406;-71
2022/05/09 08:02:01;;;;;;;13.13;10.80;;;18.00;99.90;;;;;;5033413;28;20430;-71
2022/05/09 08:04:26;;;;;;;12.17;11.13;;;18.10;99.90;;;;;;5033250;28;20245;-71
2022/05/09 08:06:52;;;;;;;11.90;10.70;;;18.40;99.90;;;;;;5032965;28;20406;-71
2022/05/09 08:09:17;;;;;;;11.70;10.70;;;18.40;99.90;;;;;;5033197;28;20175;-71
2022/05/09 08:11:44;;;;;;;11.07;10.17;;;18.40;99.90;;;;;;5033079;28;20233;-70
2022/05/09 08:14:11;;;;;;;11.67;10.67;;;18.30;99.90;;;;;;5033151;28;20554;-71
2022/05/09 08:16:38;;;;;;;11.87;10.70;;;18.20;99.90;;;;;;5032994;28;20453;-71
2022/05/09 08:19:04;;;;;;;10.60;9.60;;;18.10;99.90;;;;;;5032906;28;20852;-71
2022/05/09 08:21:30;;;;;;;10.70;9.93;;;18.20;99.90;;;;;;5032614;28;20445;-72
2022/05/09 08:23:57;;;;;;;11.23;10.30;;;18.20;99.90;;;;;;5032612;28;20505;-71
2022/05/09 08:26:22;;;;;;;11.50;10.40;;;18.20;99.90;;;;;;5032727;28;20925;-71
2022/05/09 08:28:49;;;;;;;12.00;10.90;;;18.30;99.90;;;;;;5032589;28;20410;-71
2022/05/09 08:31:18;;;;;;;11.00;10.00;;;18.50;99.90;;;;;;5032605;28;20187;-72
2022/05/09 08:33:46;;;;;;;9.80;9.00;;;18.60;99.90;;;;;;5032784;28;20413;-71
2022/05/09 08:36:45;;;;;;;10.20;9.37;;;18.80;99.90;;;;;;5031718;28;20461;-72
2022/05/09 08:38:58;;;;;;;10.07;9.17;;;18.80;99.90;;;;;;5021380;28;20433;-72
2022/05/09 08:41:24;;;;;;;10.13;9.13;;;18.90;99.90;;;;;;5012824;28;20435;-71
2022/05/09 08:44:10;;;;;;;12.37;10.20;;;19.30;99.90;;;;;;5012947;28;20187;-72
2022/05/09 08:46:59;;;;;;;10.43;9.63;;;19.50;99.90;;;;;;5013044;28;20398;-71
2022/05/09 08:50:02;;;;;;;10.80;9.77;;;19.70;99.90;;;;;;5013126;28;20440;-71
2022/05/09 08:52:59;;;;;;;10.03;9.23;;;19.70;99.90;;;;;;5075973;22;20491;-71
2022/05/09 08:55:32;;;;;;;10.77;9.97;;;19.80;99.90;;;;;;5059801;28;20483;-70
2022/05/09 08:58:19;;;;;;;10.73;9.73;;;19.70;99.90;;;;;;5080708;28;20384;-71
2022/05/09 09:00:49;;;;;;;9.73;8.93;;;19.80;99.90;;;;;;5037170;28;20409;-71
2022/05/09 09:03:38;;;;;;;8.90;8.17;;;20.00;99.90;;;;;;5075540;28;20373;-70
2022/05/09 09:06:27;;;;;;;11.00;9.40;;;20.10;99.90;;;;;;5074685;28;20803;-69
2022/05/09 09:09:15;;;;;;;10.17;9.27;;;20.10;99.90;;;;;;5073349;28;20377;-71
2022/05/09 09:11:52;;;;;;;9.70;8.70;;;20.30;99.90;;;;;;5072888;28;20442;-70
2022/05/09 09:14:36;;;;;;;9.67;8.80;;;20.20;99.90;;;;;;5073105;28;20446;-71
2022/05/09 09:17:47;;;;;;;9.90;9.00;;;20.40;99.90;;;;;;5071897;28;21043;-71
2022/05/09 09:20:18;;;;;;;9.23;8.50;;;20.50;99.90;;;;;;5057208;28;20816;-70
2022/05/09 09:22:58;;;;;;;10.90;9.87;;;20.40;99.90;;;;;;5073035;28;20833;-69
2022/05/09 09:25:32;;;;;;;9.70;8.80;;;20.40;99.90;;;;;;5073032;28;20477;-69
2022/05/09 09:28:21;;;;;;;10.27;9.37;;;20.60;99.90;;;;;;5073510;28;20384;-70
2022/05/09 09:30:47;;;;;;;9.93;9.03;;;20.80;99.90;;;;;;5073533;28;20389;-70
2022/05/09 09:33:15;;;;;;;9.33;8.63;;;20.70;99.90;;;;;;5076415;28;20913;-70
2022/05/09 09:35:43;;;;;;;9.17;8.17;;;20.90;99.90;;;;;;5075475;28;20229;-71
2022/05/09 09:38:14;;;;;;;9.70;8.90;;;21.10;99.90;;;;;;5076903;28;20400;-69
2022/05/09 09:40:40;;;;;;;9.83;8.83;;;21.30;99.90;;;;;;5076361;28;20763;-69
2022/05/09 09:43:06;;;;;;;9.30;8.50;;;21.50;99.90;;;;;;5076572;28;20479;-71
2022/05/09 09:45:46;;;;;;;9.13;8.37;;;21.30;99.90;;;;;;5075688;28;20193;-71
2022/05/09 09:48:19;;;;;;;10.20;9.40;;;21.00;99.90;;;;;;5036679;28;20152;-71
2022/05/09 09:50:50;;;;;;;9.27;8.57;;;21.20;99.90;;;;;;5036345;28;20403;-70
2022/05/09 09:53:34;;;;;;;9.97;9.07;;;21.30;99.90;;;;;;5036439;28;20473;-70
2022/05/09 09:56:20;;;;;;;9.20;8.30;;;20.90;99.90;;;;;;5049546;28;20480;-70
2022/05/09 09:58:47;;;;;;;10.03;9.07;;;20.80;99.90;;;;;;5027364;28;20413;-70
2022/05/09 10:01:20;;;;;;;9.70;8.20;;;21.20;99.90;;;;;;5063938;28;20450;-69
2022/05/09 10:04:02;;;;;;;8.80;8.10;;;21.60;99.90;;;;;;5076150;28;20472;-71
2022/05/09 10:06:28;;;;;;;8.50;7.80;;;21.80;99.90;;;;;;5076144;28;20395;-70
2022/05/09 10:09:06;;;;;;;8.73;7.70;;;22.20;99.90;;;;;;5075089;28;20785;-72
2022/05/09 10:11:32;;;;;;;8.10;7.40;;;22.00;99.90;;;;;;5058670;28;20688;-71
2022/05/09 10:14:00;;;;;;;7.67;6.97;;;22.10;99.90;;;;;;5075266;28;20416;-71
2022/05/09 10:16:45;;;;;;;9.63;7.70;;;22.10;99.90;;;;;;5075269;28;20460;-70
2022/05/09 10:19:27;;;;;;;7.17;6.63;;;22.00;99.90;;;;;;5076084;28;20394;-72
2022/05/09 10:24:48;;;;;;;8.30;7.57;;;22.20;99.90;;;;;;5076335;28;20379;-71
2022/05/09 10:27:22;;;;;;;6.60;6.10;;;22.20;99.90;;;;;;5076116;28;20828;-71
2022/05/09 10:29:55;;;;;;;8.77;7.03;;;22.10;99.90;;;;;;5075907;28;20396;-71
2022/05/09 10:32:25;;;;;;;8.30;7.30;;;22.20;99.90;;;;;;5075325;28;20444;-70
2022/05/09 10:35:14;;;;;;;9.03;6.50;;;22.10;99.90;;;;;;5075543;28;20412;-70
2022/05/09 10:38:02;;;;;;;7.33;6.63;;;22.40;99.90;;;;;;5074519;28;20392;-71
2022/05/09 10:40:37;;;;;;;6.97;6.37;;;22.70;99.90;;;;;;5075821;28;20385;-70
2022/05/09 10:43:05;;;;;;;7.50;6.90;;;22.60;99.90;;;;;;5075897;28;20415;-70
2022/05/09 10:45:38;;;;;;;7.67;6.97;;;22.60;99.90;;;;;;5075456;28;20466;-69
2022/05/09 10:48:19;;;;;;;6.73;6.13;;;22.50;99.90;;;;;;5057722;28;20806;-69
2022/05/09 10:50:57;;;;;;;8.60;7.77;;;22.50;99.90;;;;;;5075022;28;20463;-69
2022/05/09 10:53:26;;;;;;;6.70;6.17;;;22.60;99.10;;;;;;5075357;28;20450;-69
2022/05/09 10:56:07;;;;;;;8.00;6.87;;;23.50;98.90;;;;;;5057204;28;20534;-69
2022/05/09 10:58:59;;;;;;;7.07;6.57;;;23.50;97.70;;;;;;5057567;28;20397;-69
2022/05/09 11:01:36;;;;;;;6.87;6.23;;;24.20;97.10;;;;;;5075254;28;20412;-70
2022/05/09 11:04:02;;;;;;;6.43;5.83;;;24.70;95.60;;;;;;5074245;28;20784;-70
2022/05/09 11:06:55;;;;;;;7.33;6.73;;;24.60;96.70;;;;;;5074894;28;20400;-70
2022/05/09 11:09:45;;;;;;;6.63;6.03;;;24.20;96.00;;;;;;5074877;28;20393;-69
2022/05/09 11:12:35;;;;;;;6.43;5.83;;;24.30;96.40;;;;;;5075418;28;20463;-70
2022/05/09 11:15:30;;;;;;;8.90;5.90;;;24.90;95.30;;;;;;5075227;28;20385;-70
2022/05/09 11:18:10;;;;;;;5.93;5.47;;;25.70;94.20;;;;;;5056929;28;20408;-70
2022/05/09 11:20:46;;;;;;;5.00;4.60;;;26.30;93.50;;;;;;5074712;28;20384;-71
2022/05/09 11:23:43;;;;;;;6.70;6.13;;;26.20;92.40;;;;;;5074892;28;20438;-70
2022/05/09 11:26:21;;;;;;;6.33;5.67;;;27.00;90.50;;;;;;5075026;28;20407;-70
2022/05/09 11:28:47;;;;;;;7.10;6.60;;;28.00;86.50;;;;;;5074146;28;20376;-71
2022/05/09 11:31:37;;;;;;;5.80;5.33;;;29.20;83.80;;;;;;5054064;28;20821;-70
2022/05/09 11:34:14;;;;;;;5.53;5.13;;;28.40;82.90;;;;;;5057381;28;20177;-70
2022/05/09 11:37:02;;;;;;;6.20;5.70;;;27.90;81.60;;;;;;5074241;28;20444;-71
2022/05/09 11:39:55;;;;;;;6.60;6.00;;;27.00;83.40;;;;;;5074155;28;20381;-71
2022/05/09 11:45:33;;;;;;;5.80;5.30;;;25.40;88.40;;;;;;5074272;28;20407;-71
2022/05/09 11:48:01;;;;;;;6.20;5.57;;;24.70;91.20;;;;;;5074622;28;20396;-71
2022/05/09 11:50:52;;;;;;;8.70;6.67;;;23.90;91.60;;;;;;5073496;28;20416;-71
2022/05/09 11:53:21;;;;;;;7.67;6.97;;;23.60;93.60;;;;;;5074098;28;20419;-71
2022/05/09 11:55:48;;;;;;;6.23;5.80;;;23.90;93.40;;;;;;5074084;28;20440;-71
2022/05/09 11:58:15;;;;;;;6.07;5.57;;;24.60;92.50;;;;;;5055766;28;20393;-70
2022/05/09 12:00:41;;;;;;;6.13;5.73;;;26.00;90.70;;;;;;5054659;28;20401;-70
2022/05/09 12:03:13;;;;;;;7.23;6.43;;;26.10;86.20;;;;;;5053814;28;20416;-70
2022/05/09 12:05:39;;;;;;;7.30;6.60;;;25.60;87.80;;;;;;5054290;28;20640;-71
2022/05/09 12:08:19;;;;;;;6.07;5.67;;;25.40;89.50;;;;;;5054048;28;20440;-70
2022/05/09 12:10:48;;;;;;;7.10;5.37;;;27.00;84.60;;;;;;5053676;28;20213;-71
2022/05/09 12:13:19;;;;;;;5.20;4.80;;;28.50;79.50;;;;;;5053955;28;20408;-71
2022/05/09 12:15:46;;;;;;;5.77;5.37;;;30.00;76.20;;;;;;5053610;28;20452;-70
2022/05/09 12:18:21;;;;;;;5.90;5.50;;;29.10;74.90;;;;;;5053951;28;20451;-70
2022/05/09 12:20:47;;;;;;;6.20;5.70;;;28.10;78.60;;;;;;5055346;28;20416;-70
2022/05/09 12:23:41;;;;;;;5.10;4.80;;;26.40;81.00;;;;;;5055845;28;20407;-69
2022/05/09 12:26:09;;;;;;;6.63;6.03;;;25.60;84.00;;;;;;5073385;28;20248;-71
2022/05/09 12:28:39;;;;;;;5.60;5.03;;;25.40;85.30;;;;;;5073917;28;20760;-70
2022/05/09 12:31:23;;;;;;;5.57;5.00;;;26.50;84.20;;;;;;5073292;28;20445;-70
2022/05/09 12:33:51;;;;;;;5.93;5.43;;;27.90;80.50;;;;;;5073696;28;20388;-71
2022/05/09 12:36:29;;;;;;;5.40;5.00;;;27.50;78.50;;;;;;5073221;28;20455;-70
2022/05/09 12:39:01;;;;;;;5.50;5.10;;;27.70;80.50;;;;;;5073252;28;20961;-69
2022/05/09 12:41:30;;;;;;;11.80;5.53;;;27.90;76.60;;;;;;5073339;28;20427;-70
2022/05/09 12:44:07;;;;;;;5.47;5.03;;;28.60;73.60;;;;;;5073437;28;20932;-72
2022/05/09 12:46:40;;;;;;;6.03;5.63;;;29.70;72.70;;;;;;5073563;28;20384;-71
2022/05/09 12:49:08;;;;;;;5.53;5.03;;;30.30;70.20;;;;;;5073280;28;20400;-70
2022/05/09 12:51:47;;;;;;;12.70;4.80;;;31.20;69.10;;;;;;5072944;28;20500;-71
2022/05/09 12:54:16;;;;;;;6.10;5.50;;;31.40;65.80;;;;;;5073993;28;20455;-70
2022/05/09 12:56:52;;;;;;;4.90;4.50;;;30.90;67.20;;;;;;5073203;28;20440;-70
2022/05/09 12:59:18;;;;;;;4.70;4.30;;;32.00;63.50;;;;;;5073360;28;20411;-70
2022/05/09 13:01:57;;;;;;;8.33;4.47;;;32.10;66.70;;;;;;5073205;28;20926;-70